Terminal Aerodrome Forecast
Issued by NWS

Home | Current Version | Previous Version | Graphics & Text | Print | Product List | Glossary On
Versions: 1 2 3 4 5 6 7 8 9 10 11 12 13 14
956
FTUS43 KOAX 121120
TAFCDR
TAF
KCDR 121120Z 1212/1312 26008KT P6SM SKC
     FM121800 28012G22KT P6SM SKC
     FM130100 28015KT P6SM SKC
     FM130600 29020KT P6SM SKC=

USA.gov is the U.S. government's official web portal to all federal, state and local government web resources and services.